Brandon, Colorado
Current Conditions -  °F | °C
As of 8:53 PM on Saturday 20 Dec 2014 (Local Time) from KLAA Reporting Station
Clear Clear  
Wind Chill: 23°   Ceiling: Unl
Heat Index: 28°   Visibility: 10mi
Dew Point: 24°   Wind: 5mph
Humidity: 85%   Direction: 60°ENE
Pressure: 29.92"   Gusts: NA
Location:  38.4343°N, 102.505°W
Report Text: KLAA 210353Z AUTO 06004KT 10SM CLR M02/M04 A2992 RMK AO2 SLP148 T10221044
Loading
Personal Weather Stations






























Interactive Weather Map New forecast layout! Learn more

10-Day Weather Forecast

Advertisements
Track Severe Weather on mobile